sensor_id;sensor_type;location;lat;lon;timestamp;P1;durP1;ratioP1;P2;durP2;ratioP2
14060;SDS011;7105;43.616;1.434;2023-07-29T00:00:41;6.63;;;5.90;;
14060;SDS011;7105;43.616;1.434;2023-07-29T00:03:08;6.00;;;5.40;;
14060;SDS011;7105;43.616;1.434;2023-07-29T00:05:34;6.00;;;5.25;;
14060;SDS011;7105;43.616;1.434;2023-07-29T00:08:00;6.13;;;5.57;;
14060;SDS011;7105;43.616;1.434;2023-07-29T00:10:25;7.15;;;5.60;;
14060;SDS011;7105;43.616;1.434;2023-07-29T00:12:52;6.03;;;5.35;;
14060;SDS011;7105;43.616;1.434;2023-07-29T00:15:17;8.27;;;6.07;;
14060;SDS011;7105;43.616;1.434;2023-07-29T00:17:43;6.28;;;5.72;;
14060;SDS011;7105;43.616;1.434;2023-07-29T00:20:09;6.57;;;5.97;;
14060;SDS011;7105;43.616;1.434;2023-07-29T00:22:35;6.38;;;5.78;;
14060;SDS011;7105;43.616;1.434;2023-07-29T00:25:00;7.18;;;5.70;;
14060;SDS011;7105;43.616;1.434;2023-07-29T00:27:26;6.32;;;5.72;;
14060;SDS011;7105;43.616;1.434;2023-07-29T00:29:52;7.82;;;6.03;;
14060;SDS011;7105;43.616;1.434;2023-07-29T00:32:18;6.38;;;5.70;;
14060;SDS011;7105;43.616;1.434;2023-07-29T00:34:43;6.30;;;5.70;;
14060;SDS011;7105;43.616;1.434;2023-07-29T00:37:09;9.07;;;6.38;;
14060;SDS011;7105;43.616;1.434;2023-07-29T00:39:35;5.65;;;5.25;;
14060;SDS011;7105;43.616;1.434;2023-07-29T00:42:04;7.10;;;6.07;;
14060;SDS011;7105;43.616;1.434;2023-07-29T00:44:31;7.13;;;6.05;;
14060;SDS011;7105;43.616;1.434;2023-07-29T00:46:56;6.20;;;5.70;;
14060;SDS011;7105;43.616;1.434;2023-07-29T00:49:23;7.57;;;6.15;;
14060;SDS011;7105;43.616;1.434;2023-07-29T00:51:49;7.00;;;6.32;;
14060;SDS011;7105;43.616;1.434;2023-07-29T00:54:15;6.93;;;6.28;;
14060;SDS011;7105;43.616;1.434;2023-07-29T00:56:41;6.70;;;5.40;;
14060;SDS011;7105;43.616;1.434;2023-07-29T00:59:07;7.28;;;6.18;;
14060;SDS011;7105;43.616;1.434;2023-07-29T01:01:33;6.70;;;5.68;;
14060;SDS011;7105;43.616;1.434;2023-07-29T01:03:59;6.68;;;5.97;;
14060;SDS011;7105;43.616;1.434;2023-07-29T01:09:25;6.85;;;5.80;;
14060;SDS011;7105;43.616;1.434;2023-07-29T01:17:25;7.25;;;6.53;;
14060;SDS011;7105;43.616;1.434;2023-07-29T01:20:07;8.73;;;6.00;;
14060;SDS011;7105;43.616;1.434;2023-07-29T01:22:35;6.60;;;5.88;;
14060;SDS011;7105;43.616;1.434;2023-07-29T01:25:01;6.38;;;5.78;;
14060;SDS011;7105;43.616;1.434;2023-07-29T01:27:28;6.95;;;6.07;;
14060;SDS011;7105;43.616;1.434;2023-07-29T01:29:54;7.47;;;6.20;;
14060;SDS011;7105;43.616;1.434;2023-07-29T01:32:43;6.63;;;6.05;;
14060;SDS011;7105;43.616;1.434;2023-07-29T01:37:58;7.20;;;5.40;;
14060;SDS011;7105;43.616;1.434;2023-07-29T01:40:31;7.63;;;6.18;;
14060;SDS011;7105;43.616;1.434;2023-07-29T01:42:58;6.82;;;6.10;;
14060;SDS011;7105;43.616;1.434;2023-07-29T01:45:25;6.72;;;5.78;;
14060;SDS011;7105;43.616;1.434;2023-07-29T01:47:51;6.90;;;5.50;;
14060;SDS011;7105;43.616;1.434;2023-07-29T01:50:17;8.63;;;6.20;;
14060;SDS011;7105;43.616;1.434;2023-07-29T01:52:42;6.85;;;6.15;;
14060;SDS011;7105;43.616;1.434;2023-07-29T01:55:08;6.80;;;6.18;;
14060;SDS011;7105;43.616;1.434;2023-07-29T01:57:34;6.65;;;5.90;;
14060;SDS011;7105;43.616;1.434;2023-07-29T01:59:59;6.88;;;5.75;;
14060;SDS011;7105;43.616;1.434;2023-07-29T02:02:25;6.65;;;6.00;;
14060;SDS011;7105;43.616;1.434;2023-07-29T02:04:51;7.22;;;6.15;;
14060;SDS011;7105;43.616;1.434;2023-07-29T02:07:20;7.20;;;6.50;;
14060;SDS011;7105;43.616;1.434;2023-07-29T02:09:46;7.03;;;6.25;;
14060;SDS011;7105;43.616;1.434;2023-07-29T02:12:12;6.63;;;5.63;;
14060;SDS011;7105;43.616;1.434;2023-07-29T02:14:37;7.30;;;6.40;;
14060;SDS011;7105;43.616;1.434;2023-07-29T02:17:03;6.22;;;5.63;;
14060;SDS011;7105;43.616;1.434;2023-07-29T02:19:29;8.25;;;5.70;;
14060;SDS011;7105;43.616;1.434;2023-07-29T02:21:55;8.70;;;6.20;;
14060;SDS011;7105;43.616;1.434;2023-07-29T02:24:20;8.55;;;6.05;;
14060;SDS011;7105;43.616;1.434;2023-07-29T02:26:46;6.53;;;5.82;;
14060;SDS011;7105;43.616;1.434;2023-07-29T02:29:12;7.30;;;6.18;;
14060;SDS011;7105;43.616;1.434;2023-07-29T02:31:37;6.72;;;6.22;;
14060;SDS011;7105;43.616;1.434;2023-07-29T02:34:03;6.40;;;5.80;;
14060;SDS011;7105;43.616;1.434;2023-07-29T02:36:29;8.15;;;6.40;;
14060;SDS011;7105;43.616;1.434;2023-07-29T02:38:55;6.57;;;5.80;;
14060;SDS011;7105;43.616;1.434;2023-07-29T02:41:20;6.97;;;6.28;;
14060;SDS011;7105;43.616;1.434;2023-07-29T02:43:49;7.40;;;6.60;;
14060;SDS011;7105;43.616;1.434;2023-07-29T02:46:15;7.13;;;5.88;;
14060;SDS011;7105;43.616;1.434;2023-07-29T02:48:42;6.97;;;6.28;;
14060;SDS011;7105;43.616;1.434;2023-07-29T02:51:09;7.13;;;6.50;;
14060;SDS011;7105;43.616;1.434;2023-07-29T02:53:35;8.05;;;6.05;;
14060;SDS011;7105;43.616;1.434;2023-07-29T02:56:02;6.93;;;6.20;;
14060;SDS011;7105;43.616;1.434;2023-07-29T02:58:28;8.65;;;6.72;;
14060;SDS011;7105;43.616;1.434;2023-07-29T03:01:00;8.95;;;6.30;;
14060;SDS011;7105;43.616;1.434;2023-07-29T03:03:27;8.40;;;6.50;;
14060;SDS011;7105;43.616;1.434;2023-07-29T03:05:59;7.90;;;6.55;;
14060;SDS011;7105;43.616;1.434;2023-07-29T03:08:33;12.38;;;6.90;;
14060;SDS011;7105;43.616;1.434;2023-07-29T03:11:04;8.85;;;6.20;;
14060;SDS011;7105;43.616;1.434;2023-07-29T03:13:31;7.28;;;6.38;;
14060;SDS011;7105;43.616;1.434;2023-07-29T03:16:13;7.03;;;6.38;;
14060;SDS011;7105;43.616;1.434;2023-07-29T03:18:40;8.73;;;6.82;;
14060;SDS011;7105;43.616;1.434;2023-07-29T03:21:07;9.20;;;6.43;;
14060;SDS011;7105;43.616;1.434;2023-07-29T03:23:34;8.70;;;6.72;;
14060;SDS011;7105;43.616;1.434;2023-07-29T03:26:00;6.90;;;6.30;;
14060;SDS011;7105;43.616;1.434;2023-07-29T03:28:29;7.38;;;6.53;;
14060;SDS011;7105;43.616;1.434;2023-07-29T03:30:58;8.80;;;6.72;;
14060;SDS011;7105;43.616;1.434;2023-07-29T03:33:24;8.10;;;6.85;;
14060;SDS011;7105;43.616;1.434;2023-07-29T03:35:50;7.20;;;6.20;;
14060;SDS011;7105;43.616;1.434;2023-07-29T03:38:16;7.05;;;6.32;;
14060;SDS011;7105;43.616;1.434;2023-07-29T03:40:42;8.68;;;6.90;;
14060;SDS011;7105;43.616;1.434;2023-07-29T03:43:08;9.25;;;6.57;;
14060;SDS011;7105;43.616;1.434;2023-07-29T03:45:34;8.13;;;7.28;;
14060;SDS011;7105;43.616;1.434;2023-07-29T03:48:01;7.60;;;6.90;;
14060;SDS011;7105;43.616;1.434;2023-07-29T03:50:28;7.10;;;6.40;;
14060;SDS011;7105;43.616;1.434;2023-07-29T03:52:55;6.60;;;6.00;;
14060;SDS011;7105;43.616;1.434;2023-07-29T03:55:21;8.27;;;6.63;;
14060;SDS011;7105;43.616;1.434;2023-07-29T03:57:47;8.85;;;6.90;;
14060;SDS011;7105;43.616;1.434;2023-07-29T04:00:12;8.65;;;6.43;;
14060;SDS011;7105;43.616;1.434;2023-07-29T04:02:38;7.05;;;6.35;;
14060;SDS011;7105;43.616;1.434;2023-07-29T04:05:04;8.57;;;6.53;;
14060;SDS011;7105;43.616;1.434;2023-07-29T04:07:33;7.97;;;6.32;;
14060;SDS011;7105;43.616;1.434;2023-07-29T04:09:59;8.20;;;6.38;;
14060;SDS011;7105;43.616;1.434;2023-07-29T04:12:25;6.30;;;5.70;;
14060;SDS011;7105;43.616;1.434;2023-07-29T04:14:51;9.00;;;6.53;;
14060;SDS011;7105;43.616;1.434;2023-07-29T04:17:17;7.80;;;6.38;;
14060;SDS011;7105;43.616;1.434;2023-07-29T04:19:43;7.47;;;6.78;;
14060;SDS011;7105;43.616;1.434;2023-07-29T04:22:08;9.93;;;6.60;;
14060;SDS011;7105;43.616;1.434;2023-07-29T04:24:34;7.65;;;6.85;;
14060;SDS011;7105;43.616;1.434;2023-07-29T04:27:00;6.85;;;6.18;;
14060;SDS011;7105;43.616;1.434;2023-07-29T04:29:25;7.80;;;7.00;;
14060;SDS011;7105;43.616;1.434;2023-07-29T04:31:51;7.40;;;6.65;;
14060;SDS011;7105;43.616;1.434;2023-07-29T04:34:17;7.30;;;6.13;;
14060;SDS011;7105;43.616;1.434;2023-07-29T04:36:44;7.35;;;6.50;;
14060;SDS011;7105;43.616;1.434;2023-07-29T04:39:10;7.60;;;6.50;;
14060;SDS011;7105;43.616;1.434;2023-07-29T04:41:36;6.72;;;6.13;;
14060;SDS011;7105;43.616;1.434;2023-07-29T04:44:01;7.78;;;6.40;;
14060;SDS011;7105;43.616;1.434;2023-07-29T04:46:27;7.35;;;6.65;;
14060;SDS011;7105;43.616;1.434;2023-07-29T04:48:53;8.95;;;6.40;;
14060;SDS011;7105;43.616;1.434;2023-07-29T04:51:18;8.02;;;6.68;;
14060;SDS011;7105;43.616;1.434;2023-07-29T04:53:44;7.28;;;6.30;;
14060;SDS011;7105;43.616;1.434;2023-07-29T04:56:10;7.57;;;6.32;;
14060;SDS011;7105;43.616;1.434;2023-07-29T04:58:36;7.72;;;6.45;;
14060;SDS011;7105;43.616;1.434;2023-07-29T05:01:03;7.00;;;6.18;;
14060;SDS011;7105;43.616;1.434;2023-07-29T05:03:29;7.22;;;6.22;;
14060;SDS011;7105;43.616;1.434;2023-07-29T05:05:55;7.40;;;6.30;;
14060;SDS011;7105;43.616;1.434;2023-07-29T05:08:22;7.90;;;6.55;;
14060;SDS011;7105;43.616;1.434;2023-07-29T05:10:51;6.90;;;6.18;;
14060;SDS011;7105;43.616;1.434;2023-07-29T05:13:18;6.30;;;5.72;;
14060;SDS011;7105;43.616;1.434;2023-07-29T05:15:44;6.32;;;5.63;;
14060;SDS011;7105;43.616;1.434;2023-07-29T05:18:10;8.80;;;5.55;;
14060;SDS011;7105;43.616;1.434;2023-07-29T05:20:36;9.00;;;5.38;;
14060;SDS011;7105;43.616;1.434;2023-07-29T05:23:01;6.13;;;5.32;;
14060;SDS011;7105;43.616;1.434;2023-07-29T05:25:28;8.10;;;5.55;;
14060;SDS011;7105;43.616;1.434;2023-07-29T05:27:54;7.03;;;5.30;;
14060;SDS011;7105;43.616;1.434;2023-07-29T05:30:20;6.20;;;5.60;;
14060;SDS011;7105;43.616;1.434;2023-07-29T05:32:46;7.70;;;5.20;;
14060;SDS011;7105;43.616;1.434;2023-07-29T05:35:11;5.38;;;4.88;;
14060;SDS011;7105;43.616;1.434;2023-07-29T05:37:38;7.10;;;5.28;;
14060;SDS011;7105;43.616;1.434;2023-07-29T05:40:09;5.53;;;5.03;;
14060;SDS011;7105;43.616;1.434;2023-07-29T05:42:35;8.07;;;4.75;;
14060;SDS011;7105;43.616;1.434;2023-07-29T05:45:01;7.53;;;4.95;;
14060;SDS011;7105;43.616;1.434;2023-07-29T05:47:27;7.00;;;5.07;;
14060;SDS011;7105;43.616;1.434;2023-07-29T05:49:53;8.55;;;5.10;;
14060;SDS011;7105;43.616;1.434;2023-07-29T05:52:19;8.70;;;4.88;;
14060;SDS011;7105;43.616;1.434;2023-07-29T05:54:45;8.90;;;5.00;;
14060;SDS011;7105;43.616;1.434;2023-07-29T05:57:11;5.07;;;4.43;;
14060;SDS011;7105;43.616;1.434;2023-07-29T05:59:37;7.78;;;4.70;;
14060;SDS011;7105;43.616;1.434;2023-07-29T06:02:03;6.43;;;4.85;;
14060;SDS011;7105;43.616;1.434;2023-07-29T06:04:29;4.40;;;4.00;;
14060;SDS011;7105;43.616;1.434;2023-07-29T06:06:55;5.07;;;4.32;;
14060;SDS011;7105;43.616;1.434;2023-07-29T06:09:21;6.50;;;4.47;;
14060;SDS011;7105;43.616;1.434;2023-07-29T06:11:47;6.10;;;3.85;;
14060;SDS011;7105;43.616;1.434;2023-07-29T06:14:13;5.13;;;4.55;;
14060;SDS011;7105;43.616;1.434;2023-07-29T06:16:38;5.63;;;4.25;;
14060;SDS011;7105;43.616;1.434;2023-07-29T06:19:04;6.80;;;4.25;;
14060;SDS011;7105;43.616;1.434;2023-07-29T06:21:30;5.22;;;4.20;;
14060;SDS011;7105;43.616;1.434;2023-07-29T06:23:56;8.60;;;4.20;;
14060;SDS011;7105;43.616;1.434;2023-07-29T06:26:21;4.70;;;4.30;;
14060;SDS011;7105;43.616;1.434;2023-07-29T06:28:47;4.93;;;4.22;;
14060;SDS011;7105;43.616;1.434;2023-07-29T06:31:13;5.63;;;4.65;;
14060;SDS011;7105;43.616;1.434;2023-07-29T06:33:39;5.97;;;5.25;;
14060;SDS011;7105;43.616;1.434;2023-07-29T06:36:04;6.22;;;4.60;;
14060;SDS011;7105;43.616;1.434;2023-07-29T06:38:30;6.78;;;4.70;;
14060;SDS011;7105;43.616;1.434;2023-07-29T06:40:56;5.70;;;4.25;;
14060;SDS011;7105;43.616;1.434;2023-07-29T06:43:22;4.88;;;4.38;;
14060;SDS011;7105;43.616;1.434;2023-07-29T06:45:47;5.15;;;4.50;;
14060;SDS011;7105;43.616;1.434;2023-07-29T06:48:13;4.75;;;4.30;;
14060;SDS011;7105;43.616;1.434;2023-07-29T06:50:39;4.80;;;4.00;;
14060;SDS011;7105;43.616;1.434;2023-07-29T06:53:05;5.15;;;4.63;;
14060;SDS011;7105;43.616;1.434;2023-07-29T06:55:31;6.10;;;4.68;;
14060;SDS011;7105;43.616;1.434;2023-07-29T06:57:56;5.63;;;4.43;;
14060;SDS011;7105;43.616;1.434;2023-07-29T07:00:22;5.05;;;4.40;;
14060;SDS011;7105;43.616;1.434;2023-07-29T07:02:48;5.85;;;4.43;;
14060;SDS011;7105;43.616;1.434;2023-07-29T07:05:14;6.97;;;5.13;;
14060;SDS011;7105;43.616;1.434;2023-07-29T07:07:40;6.32;;;5.25;;
14060;SDS011;7105;43.616;1.434;2023-07-29T07:10:06;8.18;;;5.05;;
14060;SDS011;7105;43.616;1.434;2023-07-29T07:12:32;6.47;;;4.95;;
14060;SDS011;7105;43.616;1.434;2023-07-29T07:14:57;5.57;;;4.50;;
14060;SDS011;7105;43.616;1.434;2023-07-29T07:17:23;5.43;;;4.93;;
14060;SDS011;7105;43.616;1.434;2023-07-29T07:19:49;4.85;;;4.43;;
14060;SDS011;7105;43.616;1.434;2023-07-29T07:22:16;5.13;;;4.25;;
14060;SDS011;7105;43.616;1.434;2023-07-29T07:24:41;5.65;;;4.80;;
14060;SDS011;7105;43.616;1.434;2023-07-29T07:27:07;6.47;;;5.10;;
14060;SDS011;7105;43.616;1.434;2023-07-29T07:29:33;6.57;;;4.90;;
14060;SDS011;7105;43.616;1.434;2023-07-29T07:31:59;8.48;;;5.50;;
14060;SDS011;7105;43.616;1.434;2023-07-29T07:34:24;6.68;;;6.10;;
14060;SDS011;7105;43.616;1.434;2023-07-29T07:36:50;6.72;;;6.18;;
14060;SDS011;7105;43.616;1.434;2023-07-29T07:39:16;5.55;;;5.05;;
14060;SDS011;7105;43.616;1.434;2023-07-29T07:41:44;6.18;;;4.95;;
14060;SDS011;7105;43.616;1.434;2023-07-29T07:44:09;7.18;;;4.72;;
14060;SDS011;7105;43.616;1.434;2023-07-29T07:46:37;5.32;;;4.82;;
14060;SDS011;7105;43.616;1.434;2023-07-29T07:49:03;5.80;;;5.20;;
14060;SDS011;7105;43.616;1.434;2023-07-29T07:51:29;4.78;;;4.35;;
14060;SDS011;7105;43.616;1.434;2023-07-29T07:53:55;5.05;;;4.40;;
14060;SDS011;7105;43.616;1.434;2023-07-29T07:56:20;4.78;;;4.38;;
14060;SDS011;7105;43.616;1.434;2023-07-29T07:58:46;4.57;;;4.18;;
14060;SDS011;7105;43.616;1.434;2023-07-29T08:01:11;4.80;;;4.40;;
14060;SDS011;7105;43.616;1.434;2023-07-29T08:03:37;5.22;;;4.70;;
14060;SDS011;7105;43.616;1.434;2023-07-29T08:06:04;5.18;;;4.68;;
14060;SDS011;7105;43.616;1.434;2023-07-29T08:08:29;4.75;;;4.25;;
14060;SDS011;7105;43.616;1.434;2023-07-29T08:10:56;4.60;;;4.20;;
14060;SDS011;7105;43.616;1.434;2023-07-29T08:13:22;6.15;;;4.93;;
14060;SDS011;7105;43.616;1.434;2023-07-29T08:15:51;4.65;;;4.25;;
14060;SDS011;7105;43.616;1.434;2023-07-29T08:18:18;4.55;;;4.15;;
14060;SDS011;7105;43.616;1.434;2023-07-29T08:23:20;6.50;;;4.60;;
14060;SDS011;7105;43.616;1.434;2023-07-29T08:25:56;4.88;;;4.47;;
14060;SDS011;7105;43.616;1.434;2023-07-29T08:28:30;4.32;;;3.92;;
14060;SDS011;7105;43.616;1.434;2023-07-29T08:30:58;4.43;;;4.03;;
14060;SDS011;7105;43.616;1.434;2023-07-29T08:33:24;4.63;;;4.07;;
14060;SDS011;7105;43.616;1.434;2023-07-29T08:35:50;4.82;;;4.40;;
14060;SDS011;7105;43.616;1.434;2023-07-29T08:38:15;5.30;;;4.28;;
14060;SDS011;7105;43.616;1.434;2023-07-29T08:40:52;4.47;;;4.18;;
14060;SDS011;7105;43.616;1.434;2023-07-29T08:43:38;4.82;;;4.40;;
14060;SDS011;7105;43.616;1.434;2023-07-29T08:46:08;4.82;;;4.00;;
14060;SDS011;7105;43.616;1.434;2023-07-29T08:51:02;4.45;;;4.05;;
14060;SDS011;7105;43.616;1.434;2023-07-29T08:53:29;5.78;;;4.28;;
14060;SDS011;7105;43.616;1.434;2023-07-29T08:55:56;4.47;;;4.10;;
14060;SDS011;7105;43.616;1.434;2023-07-29T08:58:23;3.90;;;3.60;;
14060;SDS011;7105;43.616;1.434;2023-07-29T09:00:50;4.75;;;4.30;;
14060;SDS011;7105;43.616;1.434;2023-07-29T09:03:20;5.95;;;4.03;;
14060;SDS011;7105;43.616;1.434;2023-07-29T09:05:46;4.60;;;4.20;;
14060;SDS011;7105;43.616;1.434;2023-07-29T09:08:12;5.72;;;4.47;;
14060;SDS011;7105;43.616;1.434;2023-07-29T09:10:38;4.53;;;4.13;;
14060;SDS011;7105;43.616;1.434;2023-07-29T09:13:04;4.57;;;4.10;;
14060;SDS011;7105;43.616;1.434;2023-07-29T09:15:31;4.60;;;4.20;;
14060;SDS011;7105;43.616;1.434;2023-07-29T09:17:58;5.80;;;4.30;;
14060;SDS011;7105;43.616;1.434;2023-07-29T09:20:25;5.05;;;4.25;;
14060;SDS011;7105;43.616;1.434;2023-07-29T09:22:53;5.47;;;4.50;;
14060;SDS011;7105;43.616;1.434;2023-07-29T09:25:26;4.40;;;4.00;;
14060;SDS011;7105;43.616;1.434;2023-07-29T09:27:58;5.07;;;4.40;;
14060;SDS011;7105;43.616;1.434;2023-07-29T09:30:25;4.60;;;4.20;;
14060;SDS011;7105;43.616;1.434;2023-07-29T09:32:57;4.32;;;3.92;;
14060;SDS011;7105;43.616;1.434;2023-07-29T09:35:24;5.30;;;4.20;;
14060;SDS011;7105;43.616;1.434;2023-07-29T09:37:52;4.78;;;4.38;;
14060;SDS011;7105;43.616;1.434;2023-07-29T09:40:18;4.63;;;4.22;;
14060;SDS011;7105;43.616;1.434;2023-07-29T09:42:50;5.18;;;3.97;;
14060;SDS011;7105;43.616;1.434;2023-07-29T09:45:21;4.70;;;4.22;;
14060;SDS011;7105;43.616;1.434;2023-07-29T09:47:51;5.90;;;4.00;;
14060;SDS011;7105;43.616;1.434;2023-07-29T09:50:17;4.20;;;3.80;;
14060;SDS011;7105;43.616;1.434;2023-07-29T09:52:43;5.25;;;4.25;;
14060;SDS011;7105;43.616;1.434;2023-07-29T09:55:11;4.10;;;3.78;;
14060;SDS011;7105;43.616;1.434;2023-07-29T09:57:39;4.53;;;3.97;;
14060;SDS011;7105;43.616;1.434;2023-07-29T10:00:05;4.90;;;4.18;;
14060;SDS011;7105;43.616;1.434;2023-07-29T10:02:36;4.20;;;3.80;;
14060;SDS011;7105;43.616;1.434;2023-07-29T10:05:03;4.47;;;4.03;;
14060;SDS011;7105;43.616;1.434;2023-07-29T10:07:29;5.95;;;3.95;;
14060;SDS011;7105;43.616;1.434;2023-07-29T10:09:55;4.53;;;4.13;;
14060;SDS011;7105;43.616;1.434;2023-07-29T10:12:22;4.90;;;4.30;;
14060;SDS011;7105;43.616;1.434;2023-07-29T10:14:50;6.10;;;4.43;;
14060;SDS011;7105;43.616;1.434;2023-07-29T10:17:16;5.05;;;3.92;;
14060;SDS011;7105;43.616;1.434;2023-07-29T10:19:44;4.85;;;4.28;;
14060;SDS011;7105;43.616;1.434;2023-07-29T10:22:10;5.95;;;4.10;;
14060;SDS011;7105;43.616;1.434;2023-07-29T10:24:36;6.10;;;4.32;;
14060;SDS011;7105;43.616;1.434;2023-07-29T10:27:06;5.90;;;5.18;;
14060;SDS011;7105;43.616;1.434;2023-07-29T10:29:38;10.93;;;8.82;;
14060;SDS011;7105;43.616;1.434;2023-07-29T10:32:06;8.00;;;6.63;;
14060;SDS011;7105;43.616;1.434;2023-07-29T10:34:33;4.95;;;4.50;;
14060;SDS011;7105;43.616;1.434;2023-07-29T10:37:01;5.40;;;4.15;;
14060;SDS011;7105;43.616;1.434;2023-07-29T10:39:27;9.07;;;5.80;;
14060;SDS011;7105;43.616;1.434;2023-07-29T10:41:58;5.72;;;5.07;;
14060;SDS011;7105;43.616;1.434;2023-07-29T10:49:40;6.07;;;4.13;;
14060;SDS011;7105;43.616;1.434;2023-07-29T10:52:06;10.98;;;7.30;;
14060;SDS011;7105;43.616;1.434;2023-07-29T10:54:41;5.03;;;4.00;;
14060;SDS011;7105;43.616;1.434;2023-07-29T10:57:15;4.45;;;4.05;;
14060;SDS011;7105;43.616;1.434;2023-07-29T10:59:55;5.00;;;4.50;;
14060;SDS011;7105;43.616;1.434;2023-07-29T11:02:21;7.47;;;5.32;;
14060;SDS011;7105;43.616;1.434;2023-07-29T11:04:54;5.43;;;4.93;;
14060;SDS011;7105;43.616;1.434;2023-07-29T11:07:21;5.10;;;4.60;;
14060;SDS011;7105;43.616;1.434;2023-07-29T11:09:57;4.35;;;3.80;;
14060;SDS011;7105;43.616;1.434;2023-07-29T11:15:22;4.70;;;4.30;;
14060;SDS011;7105;43.616;1.434;2023-07-29T11:17:57;4.30;;;3.90;;
14060;SDS011;7105;43.616;1.434;2023-07-29T11:20:25;4.60;;;4.07;;
14060;SDS011;7105;43.616;1.434;2023-07-29T11:22:56;4.57;;;4.18;;
14060;SDS011;7105;43.616;1.434;2023-07-29T11:25:23;5.05;;;4.55;;
14060;SDS011;7105;43.616;1.434;2023-07-29T11:27:54;4.38;;;3.75;;
14060;SDS011;7105;43.616;1.434;2023-07-29T11:30:21;4.55;;;3.90;;
14060;SDS011;7105;43.616;1.434;2023-07-29T11:32:48;4.95;;;4.55;;
14060;SDS011;7105;43.616;1.434;2023-07-29T11:35:17;4.80;;;4.40;;
14060;SDS011;7105;43.616;1.434;2023-07-29T11:37:50;4.15;;;3.83;;
14060;SDS011;7105;43.616;1.434;2023-07-29T11:40:21;5.07;;;4.57;;
14060;SDS011;7105;43.616;1.434;2023-07-29T11:42:48;4.90;;;4.38;;
14060;SDS011;7105;43.616;1.434;2023-07-29T11:45:18;5.22;;;4.72;;
14060;SDS011;7105;43.616;1.434;2023-07-29T11:47:45;6.65;;;4.70;;
14060;SDS011;7105;43.616;1.434;2023-07-29T11:50:11;5.20;;;4.63;;
14060;SDS011;7105;43.616;1.434;2023-07-29T11:52:44;5.88;;;4.55;;
14060;SDS011;7105;43.616;1.434;2023-07-29T11:55:12;5.38;;;4.88;;
14060;SDS011;7105;43.616;1.434;2023-07-29T11:57:39;5.90;;;4.85;;
14060;SDS011;7105;43.616;1.434;2023-07-29T12:00:06;5.38;;;4.88;;
14060;SDS011;7105;43.616;1.434;2023-07-29T12:02:36;5.80;;;4.80;;
14060;SDS011;7105;43.616;1.434;2023-07-29T12:05:04;5.30;;;4.90;;
14060;SDS011;7105;43.616;1.434;2023-07-29T12:07:32;4.72;;;4.20;;
14060;SDS011;7105;43.616;1.434;2023-07-29T12:10:01;5.10;;;4.65;;
14060;SDS011;7105;43.616;1.434;2023-07-29T12:12:28;5.10;;;4.65;;
14060;SDS011;7105;43.616;1.434;2023-07-29T12:14:54;5.55;;;4.75;;
14060;SDS011;7105;43.616;1.434;2023-07-29T12:17:20;6.07;;;4.97;;
14060;SDS011;7105;43.616;1.434;2023-07-29T12:19:45;5.78;;;4.93;;
14060;SDS011;7105;43.616;1.434;2023-07-29T12:22:17;5.75;;;5.18;;
14060;SDS011;7105;43.616;1.434;2023-07-29T12:24:44;5.40;;;4.47;;
14060;SDS011;7105;43.616;1.434;2023-07-29T12:27:10;5.88;;;4.88;;
14060;SDS011;7105;43.616;1.434;2023-07-29T12:29:41;5.45;;;4.93;;
14060;SDS011;7105;43.616;1.434;2023-07-29T12:32:08;5.47;;;4.88;;
14060;SDS011;7105;43.616;1.434;2023-07-29T12:34:34;5.47;;;5.00;;
14060;SDS011;7105;43.616;1.434;2023-07-29T12:37:02;5.68;;;5.07;;
14060;SDS011;7105;43.616;1.434;2023-07-29T12:39:29;4.85;;;4.45;;
14060;SDS011;7105;43.616;1.434;2023-07-29T12:41:57;5.13;;;4.72;;
14060;SDS011;7105;43.616;1.434;2023-07-29T12:44:25;7.40;;;5.00;;
14060;SDS011;7105;43.616;1.434;2023-07-29T12:46:59;5.22;;;4.60;;
14060;SDS011;7105;43.616;1.434;2023-07-29T12:49:27;5.35;;;4.85;;
14060;SDS011;7105;43.616;1.434;2023-07-29T12:51:54;5.32;;;4.93;;
14060;SDS011;7105;43.616;1.434;2023-07-29T12:54:20;5.15;;;4.63;;
14060;SDS011;7105;43.616;1.434;2023-07-29T12:56:46;6.38;;;5.70;;
14060;SDS011;7105;43.616;1.434;2023-07-29T12:59:12;7.18;;;4.75;;
14060;SDS011;7105;43.616;1.434;2023-07-29T13:01:37;6.78;;;4.70;;
14060;SDS011;7105;43.616;1.434;2023-07-29T13:04:03;5.60;;;4.15;;
14060;SDS011;7105;43.616;1.434;2023-07-29T13:06:29;4.68;;;4.25;;
14060;SDS011;7105;43.616;1.434;2023-07-29T13:08:55;8.27;;;4.95;;
14060;SDS011;7105;43.616;1.434;2023-07-29T13:11:20;5.10;;;4.50;;
14060;SDS011;7105;43.616;1.434;2023-07-29T13:13:46;4.90;;;4.30;;
14060;SDS011;7105;43.616;1.434;2023-07-29T13:16:12;6.93;;;4.47;;
14060;SDS011;7105;43.616;1.434;2023-07-29T13:18:38;4.93;;;4.18;;
14060;SDS011;7105;43.616;1.434;2023-07-29T13:21:04;5.78;;;4.15;;
14060;SDS011;7105;43.616;1.434;2023-07-29T13:23:30;4.55;;;3.83;;
14060;SDS011;7105;43.616;1.434;2023-07-29T13:25:56;5.78;;;3.70;;
14060;SDS011;7105;43.616;1.434;2023-07-29T13:28:25;4.32;;;3.92;;
14060;SDS011;7105;43.616;1.434;2023-07-29T13:30:50;4.95;;;3.95;;
14060;SDS011;7105;43.616;1.434;2023-07-29T13:33:16;4.85;;;4.43;;
14060;SDS011;7105;43.616;1.434;2023-07-29T13:35:42;5.40;;;4.30;;
14060;SDS011;7105;43.616;1.434;2023-07-29T13:38:07;4.82;;;4.32;;
14060;SDS011;7105;43.616;1.434;2023-07-29T13:40:34;5.38;;;4.20;;
14060;SDS011;7105;43.616;1.434;2023-07-29T13:42:59;6.22;;;4.60;;
14060;SDS011;7105;43.616;1.434;2023-07-29T13:45:25;4.75;;;4.18;;
14060;SDS011;7105;43.616;1.434;2023-07-29T13:47:51;15.98;;;5.20;;
14060;SDS011;7105;43.616;1.434;2023-07-29T13:50:17;4.72;;;3.83;;
14060;SDS011;7105;43.616;1.434;2023-07-29T13:52:43;5.10;;;4.30;;
14060;SDS011;7105;43.616;1.434;2023-07-29T13:55:09;4.47;;;4.00;;
14060;SDS011;7105;43.616;1.434;2023-07-29T13:57:36;4.72;;;4.30;;
14060;SDS011;7105;43.616;1.434;2023-07-29T14:00:02;5.13;;;4.05;;
14060;SDS011;7105;43.616;1.434;2023-07-29T14:02:28;7.07;;;4.13;;
14060;SDS011;7105;43.616;1.434;2023-07-29T14:04:56;4.60;;;4.20;;
14060;SDS011;7105;43.616;1.434;2023-07-29T14:07:21;4.57;;;4.18;;
14060;SDS011;7105;43.616;1.434;2023-07-29T14:09:47;6.88;;;4.10;;
14060;SDS011;7105;43.616;1.434;2023-07-29T14:12:13;4.30;;;3.90;;
14060;SDS011;7105;43.616;1.434;2023-07-29T14:14:40;5.88;;;4.22;;
14060;SDS011;7105;43.616;1.434;2023-07-29T14:17:07;5.30;;;4.40;;
14060;SDS011;7105;43.616;1.434;2023-07-29T14:19:33;4.72;;;4.28;;
14060;SDS011;7105;43.616;1.434;2023-07-29T14:21:59;4.65;;;4.25;;
14060;SDS011;7105;43.616;1.434;2023-07-29T14:24:25;5.05;;;4.43;;
14060;SDS011;7105;43.616;1.434;2023-07-29T14:26:51;5.00;;;4.13;;
14060;SDS011;7105;43.616;1.434;2023-07-29T14:29:17;6.82;;;4.88;;
14060;SDS011;7105;43.616;1.434;2023-07-29T14:31:42;5.63;;;4.10;;
14060;SDS011;7105;43.616;1.434;2023-07-29T14:34:08;6.57;;;4.63;;
14060;SDS011;7105;43.616;1.434;2023-07-29T14:36:34;5.15;;;4.65;;
14060;SDS011;7105;43.616;1.434;2023-07-29T14:39:00;5.10;;;4.60;;
14060;SDS011;7105;43.616;1.434;2023-07-29T14:41:30;4.72;;;4.22;;
14060;SDS011;7105;43.616;1.434;2023-07-29T14:43:55;4.72;;;4.25;;
14060;SDS011;7105;43.616;1.434;2023-07-29T14:46:21;5.35;;;4.60;;
14060;SDS011;7105;43.616;1.434;2023-07-29T14:48:47;4.55;;;4.15;;
14060;SDS011;7105;43.616;1.434;2023-07-29T14:51:13;6.82;;;4.25;;
14060;SDS011;7105;43.616;1.434;2023-07-29T14:53:39;4.57;;;4.15;;
14060;SDS011;7105;43.616;1.434;2023-07-29T14:56:05;4.82;;;4.43;;
14060;SDS011;7105;43.616;1.434;2023-07-29T14:58:30;5.07;;;4.43;;
14060;SDS011;7105;43.616;1.434;2023-07-29T15:00:56;5.50;;;4.30;;
14060;SDS011;7105;43.616;1.434;2023-07-29T15:03:23;4.60;;;4.20;;
14060;SDS011;7105;43.616;1.434;2023-07-29T15:05:49;5.03;;;4.43;;
14060;SDS011;7105;43.616;1.434;2023-07-29T15:08:15;4.22;;;3.90;;
14060;SDS011;7105;43.616;1.434;2023-07-29T15:10:40;4.63;;;4.22;;
14060;SDS011;7105;43.616;1.434;2023-07-29T15:13:10;5.55;;;4.05;;
14060;SDS011;7105;43.616;1.434;2023-07-29T15:15:35;4.32;;;3.92;;
14060;SDS011;7105;43.616;1.434;2023-07-29T15:18:01;5.03;;;4.22;;
14060;SDS011;7105;43.616;1.434;2023-07-29T15:20:26;4.70;;;4.30;;
14060;SDS011;7105;43.616;1.434;2023-07-29T15:22:52;5.00;;;4.10;;